Back to top

Big Piney, WY weather

Big Piney-Marbleton Airport (AMOS), Big Piney, WY: 9/17/2019 23:53
Visibility10 statute milesclear sky
View 7-Day Forecast
Area Summary
Sky/CloudsSky Clear
Weather [last 24 hours]None
Pressure30.19 in.Hg (1022 hPa)
Dew Point24.1 °F (-4.4 °C)
Relative Humidity78.2 %
Temperature30 °F (-1.1 °C)red thermometer
Wind Chill25.1 °F (-3.82 °C)
Reading TimeMinimum to Maximum Temperature
6-hr ending 9/17@23:5330 °F to 52 °F (-1.1 °C to 11.1 °C)
6-hr ending 9/17@17:5350 °F to 55.9 °F (10 °C to 13.3 °C)
Wind4.6 MPH (4 KT) green arrow pointing 337.5 degrees
Wind FromNorth/Northwest (330 Degrees)
Rolling 24-hr Peak Wind49.5 MPH (43 KT) on 9/17@14:30
Rolling 24-hr Peak Wind FromWest/Northwest (290 Degrees)
Twilight Begins06:34Sunshine Yesterday
Sunrise07:03N/A
Sunset19:25
Twilight Ends19:53
METARKBPI 180553Z AUTO 33004KT 10SM CLR M01/M04 A3019 RMK AO2 SLP187 T10111044 10111 21011
Tags: